sensor_id;sensor_type;location;lat;lon;timestamp;temperature;humidity
22940;DHT22;11636;52.086;5.090;2023-06-10T00:01:48;22.30;87.70
22940;DHT22;11636;52.086;5.090;2023-06-10T00:04:40;22.30;87.60
22940;DHT22;11636;52.086;5.090;2023-06-10T00:07:27;22.30;87.60
22940;DHT22;11636;52.086;5.090;2023-06-10T00:10:19;22.30;87.50
22940;DHT22;11636;52.086;5.090;2023-06-10T00:13:05;22.30;87.50
22940;DHT22;11636;52.086;5.090;2023-06-10T00:16:00;22.20;87.50
22940;DHT22;11636;52.086;5.090;2023-06-10T00:18:53;22.20;87.50
22940;DHT22;11636;52.086;5.090;2023-06-10T00:21:47;22.20;87.50
22940;DHT22;11636;52.086;5.090;2023-06-10T00:24:39;22.10;87.50
22940;DHT22;11636;52.086;5.090;2023-06-10T00:27:24;22.10;87.40
22940;DHT22;11636;52.086;5.090;2023-06-10T00:30:23;22.10;87.10
22940;DHT22;11636;52.086;5.090;2023-06-10T00:33:08;22.10;87.20
22940;DHT22;11636;52.086;5.090;2023-06-10T00:36:01;22.00;87.20
22940;DHT22;11636;52.086;5.090;2023-06-10T00:38:46;22.00;87.30
22940;DHT22;11636;52.086;5.090;2023-06-10T00:41:38;22.00;87.10
22940;DHT22;11636;52.086;5.090;2023-06-10T00:44:30;22.00;87.00
22940;DHT22;11636;52.086;5.090;2023-06-10T00:47:16;22.00;87.00
22940;DHT22;11636;52.086;5.090;2023-06-10T00:50:10;22.00;87.20
22940;DHT22;11636;52.086;5.090;2023-06-10T00:53:03;21.90;86.90
22940;DHT22;11636;52.086;5.090;2023-06-10T00:55:49;21.90;86.50
22940;DHT22;11636;52.086;5.090;2023-06-10T00:58:41;21.90;87.00
22940;DHT22;11636;52.086;5.090;2023-06-10T01:01:33;21.90;87.00
22940;DHT22;11636;52.086;5.090;2023-06-10T01:04:26;21.80;86.80
22940;DHT22;11636;52.086;5.090;2023-06-10T01:10:51;21.70;86.70
22940;DHT22;11636;52.086;5.090;2023-06-10T01:13:38;21.70;86.50
22940;DHT22;11636;52.086;5.090;2023-06-10T01:16:32;21.70;86.40
22940;DHT22;11636;52.086;5.090;2023-06-10T01:19:17;21.70;86.40
22940;DHT22;11636;52.086;5.090;2023-06-10T01:22:10;21.60;86.10
22940;DHT22;11636;52.086;5.090;2023-06-10T01:24:55;21.60;85.90
22940;DHT22;11636;52.086;5.090;2023-06-10T01:27:51;21.60;85.90
22940;DHT22;11636;52.086;5.090;2023-06-10T01:30:45;21.50;85.30
22940;DHT22;11636;52.086;5.090;2023-06-10T01:33:43;21.50;85.20
22940;DHT22;11636;52.086;5.090;2023-06-10T01:36:29;21.40;84.80
22940;DHT22;11636;52.086;5.090;2023-06-10T01:39:24;21.40;84.70
22940;DHT22;11636;52.086;5.090;2023-06-10T01:42:17;21.40;84.90
22940;DHT22;11636;52.086;5.090;2023-06-10T01:45:03;21.40;85.10
22940;DHT22;11636;52.086;5.090;2023-06-10T01:47:55;21.30;84.80
22940;DHT22;11636;52.086;5.090;2023-06-10T01:50:41;21.30;84.80
22940;DHT22;11636;52.086;5.090;2023-06-10T01:53:33;21.30;84.70
22940;DHT22;11636;52.086;5.090;2023-06-10T01:56:25;21.30;84.70
22940;DHT22;11636;52.086;5.090;2023-06-10T01:59:17;21.20;85.30
22940;DHT22;11636;52.086;5.090;2023-06-10T02:02:09;21.20;84.60
22940;DHT22;11636;52.086;5.090;2023-06-10T02:05:01;21.20;84.60
22940;DHT22;11636;52.086;5.090;2023-06-10T02:07:46;21.10;84.40
22940;DHT22;11636;52.086;5.090;2023-06-10T02:10:38;21.10;84.60
22940;DHT22;11636;52.086;5.090;2023-06-10T02:13:24;21.10;84.60
22940;DHT22;11636;52.086;5.090;2023-06-10T02:16:16;21.10;84.70
22940;DHT22;11636;52.086;5.090;2023-06-10T02:19:02;21.10;84.80
22940;DHT22;11636;52.086;5.090;2023-06-10T02:21:58;21.00;84.70
22940;DHT22;11636;52.086;5.090;2023-06-10T02:24:43;21.00;84.70
22940;DHT22;11636;52.086;5.090;2023-06-10T02:27:36;21.00;84.60
22940;DHT22;11636;52.086;5.090;2023-06-10T02:30:21;21.00;84.80
22940;DHT22;11636;52.086;5.090;2023-06-10T02:33:13;20.90;85.00
22940;DHT22;11636;52.086;5.090;2023-06-10T02:35:59;20.90;85.50
22940;DHT22;11636;52.086;5.090;2023-06-10T02:38:51;20.90;85.40
22940;DHT22;11636;52.086;5.090;2023-06-10T02:41:43;20.90;85.40
22940;DHT22;11636;52.086;5.090;2023-06-10T02:44:35;20.80;85.60
22940;DHT22;11636;52.086;5.090;2023-06-10T02:47:21;20.80;85.80
22940;DHT22;11636;52.086;5.090;2023-06-10T02:50:13;20.70;85.60
22940;DHT22;11636;52.086;5.090;2023-06-10T02:53:05;20.70;85.90
22940;DHT22;11636;52.086;5.090;2023-06-10T02:55:51;20.70;86.20
22940;DHT22;11636;52.086;5.090;2023-06-10T02:58:58;20.60;86.60
22940;DHT22;11636;52.086;5.090;2023-06-10T03:01:58;20.60;86.90
22940;DHT22;11636;52.086;5.090;2023-06-10T03:04:47;20.60;87.10
22940;DHT22;11636;52.086;5.090;2023-06-10T03:07:39;20.50;87.40
22940;DHT22;11636;52.086;5.090;2023-06-10T03:10:31;20.50;87.60
22940;DHT22;11636;52.086;5.090;2023-06-10T03:13:18;20.50;88.70
22940;DHT22;11636;52.086;5.090;2023-06-10T03:16:10;20.50;88.10
22940;DHT22;11636;52.086;5.090;2023-06-10T03:18:57;20.40;88.30
22940;DHT22;11636;52.086;5.090;2023-06-10T03:21:57;20.40;88.60
22940;DHT22;11636;52.086;5.090;2023-06-10T03:24:49;20.40;88.90
22940;DHT22;11636;52.086;5.090;2023-06-10T03:27:35;20.30;88.90
22940;DHT22;11636;52.086;5.090;2023-06-10T03:30:27;20.30;89.30
22940;DHT22;11636;52.086;5.090;2023-06-10T03:33:20;20.30;89.40
22940;DHT22;11636;52.086;5.090;2023-06-10T03:36:12;20.30;89.50
22940;DHT22;11636;52.086;5.090;2023-06-10T03:39:04;20.30;89.70
22940;DHT22;11636;52.086;5.090;2023-06-10T03:41:56;20.30;90.00
22940;DHT22;11636;52.086;5.090;2023-06-10T03:44:44;20.30;90.20
22940;DHT22;11636;52.086;5.090;2023-06-10T03:47:37;20.20;90.20
22940;DHT22;11636;52.086;5.090;2023-06-10T03:50:29;20.20;90.30
22940;DHT22;11636;52.086;5.090;2023-06-10T03:53:22;20.20;90.40
22940;DHT22;11636;52.086;5.090;2023-06-10T03:56:14;20.20;90.40
22940;DHT22;11636;52.086;5.090;2023-06-10T03:59:06;20.20;90.50
22940;DHT22;11636;52.086;5.090;2023-06-10T04:01:58;20.20;90.60
22940;DHT22;11636;52.086;5.090;2023-06-10T04:04:50;20.20;90.70
22940;DHT22;11636;52.086;5.090;2023-06-10T04:07:36;20.20;90.80
22940;DHT22;11636;52.086;5.090;2023-06-10T04:10:28;20.20;90.80
22940;DHT22;11636;52.086;5.090;2023-06-10T04:13:20;20.20;90.80
22940;DHT22;11636;52.086;5.090;2023-06-10T04:16:06;20.20;90.90
22940;DHT22;11636;52.086;5.090;2023-06-10T04:18:58;20.20;91.00
22940;DHT22;11636;52.086;5.090;2023-06-10T04:21:44;20.20;91.10
22940;DHT22;11636;52.086;5.090;2023-06-10T04:24:36;20.20;91.10
22940;DHT22;11636;52.086;5.090;2023-06-10T04:27:22;20.20;91.20
22940;DHT22;11636;52.086;5.090;2023-06-10T04:30:13;20.20;91.40
22940;DHT22;11636;52.086;5.090;2023-06-10T04:33:05;20.20;91.50
22940;DHT22;11636;52.086;5.090;2023-06-10T04:35:58;20.20;91.50
22940;DHT22;11636;52.086;5.090;2023-06-10T04:38:50;20.10;91.60
22940;DHT22;11636;52.086;5.090;2023-06-10T04:41:43;20.10;91.80
22940;DHT22;11636;52.086;5.090;2023-06-10T04:44:29;20.10;91.90
22940;DHT22;11636;52.086;5.090;2023-06-10T04:47:22;20.10;91.90
22940;DHT22;11636;52.086;5.090;2023-06-10T04:50:08;20.10;92.00
22940;DHT22;11636;52.086;5.090;2023-06-10T04:53:00;20.10;92.10
22940;DHT22;11636;52.086;5.090;2023-06-10T04:55:52;20.10;92.20
22940;DHT22;11636;52.086;5.090;2023-06-10T04:58:38;20.10;92.30
22940;DHT22;11636;52.086;5.090;2023-06-10T05:01:29;20.10;92.20
22940;DHT22;11636;52.086;5.090;2023-06-10T05:04:15;20.10;92.20
22940;DHT22;11636;52.086;5.090;2023-06-10T05:07:07;20.10;92.40
22940;DHT22;11636;52.086;5.090;2023-06-10T05:09:53;20.10;92.40
22940;DHT22;11636;52.086;5.090;2023-06-10T05:12:45;20.20;92.40
22940;DHT22;11636;52.086;5.090;2023-06-10T05:15:31;20.20;92.40
22940;DHT22;11636;52.086;5.090;2023-06-10T05:18:23;20.20;92.30
22940;DHT22;11636;52.086;5.090;2023-06-10T05:21:15;20.20;92.50
22940;DHT22;11636;52.086;5.090;2023-06-10T05:24:07;20.20;92.50
22940;DHT22;11636;52.086;5.090;2023-06-10T05:26:53;20.20;92.60
22940;DHT22;11636;52.086;5.090;2023-06-10T05:29:44;20.20;92.60
22940;DHT22;11636;52.086;5.090;2023-06-10T05:32:36;20.20;92.60
22940;DHT22;11636;52.086;5.090;2023-06-10T05:35:28;20.20;92.70
22940;DHT22;11636;52.086;5.090;2023-06-10T05:38:20;20.30;92.90
22940;DHT22;11636;52.086;5.090;2023-06-10T05:41:06;20.30;92.80
22940;DHT22;11636;52.086;5.090;2023-06-10T05:43:57;20.30;92.70
22940;DHT22;11636;52.086;5.090;2023-06-10T05:46:43;20.30;92.70
22940;DHT22;11636;52.086;5.090;2023-06-10T05:49:35;20.30;92.80
22940;DHT22;11636;52.086;5.090;2023-06-10T05:52:28;20.30;92.90
22940;DHT22;11636;52.086;5.090;2023-06-10T05:55:19;20.40;93.00
22940;DHT22;11636;52.086;5.090;2023-06-10T05:58:14;20.40;93.10
22940;DHT22;11636;52.086;5.090;2023-06-10T06:01:06;20.40;93.30
22940;DHT22;11636;52.086;5.090;2023-06-10T06:03:52;20.50;93.40
22940;DHT22;11636;52.086;5.090;2023-06-10T06:06:43;20.50;93.40
22940;DHT22;11636;52.086;5.090;2023-06-10T06:09:35;20.50;93.40
22940;DHT22;11636;52.086;5.090;2023-06-10T06:12:20;20.60;93.30
22940;DHT22;11636;52.086;5.090;2023-06-10T06:15:12;20.60;93.30
22940;DHT22;11636;52.086;5.090;2023-06-10T06:17:58;20.60;93.40
22940;DHT22;11636;52.086;5.090;2023-06-10T06:20:51;20.70;93.40
22940;DHT22;11636;52.086;5.090;2023-06-10T06:23:36;20.70;93.50
22940;DHT22;11636;52.086;5.090;2023-06-10T06:26:28;20.80;93.60
22940;DHT22;11636;52.086;5.090;2023-06-10T06:29:20;20.80;93.50
22940;DHT22;11636;52.086;5.090;2023-06-10T06:32:06;20.80;93.70
22940;DHT22;11636;52.086;5.090;2023-06-10T06:34:58;20.80;93.80
22940;DHT22;11636;52.086;5.090;2023-06-10T06:37:44;20.80;93.80
22940;DHT22;11636;52.086;5.090;2023-06-10T06:40:36;20.80;93.90
22940;DHT22;11636;52.086;5.090;2023-06-10T06:43:22;20.90;94.20
22940;DHT22;11636;52.086;5.090;2023-06-10T06:46:13;20.90;94.70
22940;DHT22;11636;52.086;5.090;2023-06-10T06:49:05;21.00;94.10
22940;DHT22;11636;52.086;5.090;2023-06-10T06:51:51;21.00;94.00
22940;DHT22;11636;52.086;5.090;2023-06-10T06:54:42;21.00;94.30
22940;DHT22;11636;52.086;5.090;2023-06-10T06:57:34;21.10;94.20
22940;DHT22;11636;52.086;5.090;2023-06-10T07:00:27;21.20;94.50
22940;DHT22;11636;52.086;5.090;2023-06-10T07:03:12;21.20;94.60
22940;DHT22;11636;52.086;5.090;2023-06-10T07:06:04;21.20;94.60
22940;DHT22;11636;52.086;5.090;2023-06-10T07:08:50;21.30;94.80
22940;DHT22;11636;52.086;5.090;2023-06-10T07:11:43;21.30;95.00
22940;DHT22;11636;52.086;5.090;2023-06-10T07:14:34;21.40;94.60
22940;DHT22;11636;52.086;5.090;2023-06-10T07:17:26;21.40;94.40
22940;DHT22;11636;52.086;5.090;2023-06-10T07:20:12;21.50;94.00
22940;DHT22;11636;52.086;5.090;2023-06-10T07:23:06;21.50;93.90
22940;DHT22;11636;52.086;5.090;2023-06-10T07:25:58;21.60;93.70
22940;DHT22;11636;52.086;5.090;2023-06-10T07:28:44;21.70;93.50
22940;DHT22;11636;52.086;5.090;2023-06-10T07:31:35;21.70;93.60
22940;DHT22;11636;52.086;5.090;2023-06-10T07:34:21;21.80;93.60
22940;DHT22;11636;52.086;5.090;2023-06-10T07:37:13;21.80;93.80
22940;DHT22;11636;52.086;5.090;2023-06-10T07:40:06;21.80;93.80
22940;DHT22;11636;52.086;5.090;2023-06-10T07:42:58;21.80;93.70
22940;DHT22;11636;52.086;5.090;2023-06-10T07:45:45;21.90;93.60
22940;DHT22;11636;52.086;5.090;2023-06-10T07:48:37;22.00;93.50
22940;DHT22;11636;52.086;5.090;2023-06-10T07:51:23;22.10;93.30
22940;DHT22;11636;52.086;5.090;2023-06-10T07:54:14;22.20;93.10
22940;DHT22;11636;52.086;5.090;2023-06-10T07:57:02;22.30;93.00
22940;DHT22;11636;52.086;5.090;2023-06-10T07:59:55;22.40;92.80
22940;DHT22;11636;52.086;5.090;2023-06-10T08:02:43;22.50;92.40
22940;DHT22;11636;52.086;5.090;2023-06-10T08:05:35;22.60;92.20
22940;DHT22;11636;52.086;5.090;2023-06-10T08:08:20;22.80;91.90
22940;DHT22;11636;52.086;5.090;2023-06-10T08:11:13;22.90;91.60
22940;DHT22;11636;52.086;5.090;2023-06-10T08:13:58;23.10;91.40
22940;DHT22;11636;52.086;5.090;2023-06-10T08:16:50;23.20;91.20
22940;DHT22;11636;52.086;5.090;2023-06-10T08:19:36;23.30;90.60
22940;DHT22;11636;52.086;5.090;2023-06-10T08:22:28;23.40;90.60
22940;DHT22;11636;52.086;5.090;2023-06-10T08:25:14;23.50;90.70
22940;DHT22;11636;52.086;5.090;2023-06-10T08:28:05;23.60;90.40
22940;DHT22;11636;52.086;5.090;2023-06-10T08:30:51;23.80;90.00
22940;DHT22;11636;52.086;5.090;2023-06-10T08:33:43;24.00;90.10
22940;DHT22;11636;52.086;5.090;2023-06-10T08:36:28;24.20;90.00
22940;DHT22;11636;52.086;5.090;2023-06-10T08:39:21;24.30;89.70
22940;DHT22;11636;52.086;5.090;2023-06-10T08:45:18;24.60;89.30
22940;DHT22;11636;52.086;5.090;2023-06-10T08:48:05;24.70;89.10
22940;DHT22;11636;52.086;5.090;2023-06-10T08:51:04;24.80;88.70
22940;DHT22;11636;52.086;5.090;2023-06-10T08:54:02;25.00;87.90
22940;DHT22;11636;52.086;5.090;2023-06-10T08:56:57;25.10;87.30
22940;DHT22;11636;52.086;5.090;2023-06-10T08:59:49;25.30;87.30
22940;DHT22;11636;52.086;5.090;2023-06-10T09:02:41;25.50;86.80
22940;DHT22;11636;52.086;5.090;2023-06-10T09:05:28;25.70;85.60
22940;DHT22;11636;52.086;5.090;2023-06-10T09:08:21;25.90;85.10
22940;DHT22;11636;52.086;5.090;2023-06-10T09:11:06;26.00;84.90
22940;DHT22;11636;52.086;5.090;2023-06-10T09:13:59;26.20;84.60
22940;DHT22;11636;52.086;5.090;2023-06-10T09:16:51;26.30;84.00
22940;DHT22;11636;52.086;5.090;2023-06-10T09:19:43;26.50;83.50
22940;DHT22;11636;52.086;5.090;2023-06-10T09:22:35;26.70;82.40
22940;DHT22;11636;52.086;5.090;2023-06-10T09:25:34;26.70;82.00
22940;DHT22;11636;52.086;5.090;2023-06-10T09:28:27;26.80;82.00
22940;DHT22;11636;52.086;5.090;2023-06-10T09:31:20;26.90;82.70
22940;DHT22;11636;52.086;5.090;2023-06-10T09:34:14;27.00;81.70
22940;DHT22;11636;52.086;5.090;2023-06-10T09:37:08;27.20;80.80
22940;DHT22;11636;52.086;5.090;2023-06-10T09:40:07;27.40;81.40
22940;DHT22;11636;52.086;5.090;2023-06-10T09:43:00;27.50;80.70
22940;DHT22;11636;52.086;5.090;2023-06-10T09:45:51;27.50;79.80
22940;DHT22;11636;52.086;5.090;2023-06-10T09:48:47;27.60;79.90
22940;DHT22;11636;52.086;5.090;2023-06-10T09:51:33;27.70;78.70
22940;DHT22;11636;52.086;5.090;2023-06-10T09:54:31;27.80;79.00
22940;DHT22;11636;52.086;5.090;2023-06-10T09:57:24;27.90;77.60
22940;DHT22;11636;52.086;5.090;2023-06-10T10:00:16;28.10;83.90
22940;DHT22;11636;52.086;5.090;2023-06-10T10:03:02;28.20;82.80
22940;DHT22;11636;52.086;5.090;2023-06-10T10:05:59;28.30;81.00
22940;DHT22;11636;52.086;5.090;2023-06-10T10:08:55;28.40;81.40
22940;DHT22;11636;52.086;5.090;2023-06-10T10:11:41;28.40;81.30
22940;DHT22;11636;52.086;5.090;2023-06-10T10:14:34;28.40;89.50
22940;DHT22;11636;52.086;5.090;2023-06-10T10:17:21;28.20;91.70
22940;DHT22;11636;52.086;5.090;2023-06-10T10:20:19;28.20;90.30
22940;DHT22;11636;52.086;5.090;2023-06-10T10:23:13;28.30;88.90
22940;DHT22;11636;52.086;5.090;2023-06-10T10:26:01;28.40;86.50
22940;DHT22;11636;52.086;5.090;2023-06-10T10:29:52;28.60;84.00
22940;DHT22;11636;52.086;5.090;2023-06-10T10:32:18;28.70;81.90
22940;DHT22;11636;52.086;5.090;2023-06-10T10:35:13;28.90;79.80
22940;DHT22;11636;52.086;5.090;2023-06-10T10:38:08;29.10;78.30
22940;DHT22;11636;52.086;5.090;2023-06-10T10:40:55;29.30;76.60
22940;DHT22;11636;52.086;5.090;2023-06-10T10:43:51;29.50;74.70
22940;DHT22;11636;52.086;5.090;2023-06-10T10:46:45;29.60;72.50
22940;DHT22;11636;52.086;5.090;2023-06-10T10:49:43;29.70;71.80
22940;DHT22;11636;52.086;5.090;2023-06-10T10:53:00;29.80;70.80
22940;DHT22;11636;52.086;5.090;2023-06-10T10:56:05;29.80;70.10
22940;DHT22;11636;52.086;5.090;2023-06-10T10:59:04;29.90;69.60
22940;DHT22;11636;52.086;5.090;2023-06-10T11:01:57;30.10;70.00
22940;DHT22;11636;52.086;5.090;2023-06-10T11:04:47;30.20;69.10
22940;DHT22;11636;52.086;5.090;2023-06-10T11:07:39;30.40;68.30
22940;DHT22;11636;52.086;5.090;2023-06-10T11:10:32;30.50;67.40
22940;DHT22;11636;52.086;5.090;2023-06-10T11:13:26;30.60;68.00
22940;DHT22;11636;52.086;5.090;2023-06-10T11:16:20;30.60;66.30
22940;DHT22;11636;52.086;5.090;2023-06-10T11:19:05;30.70;65.10
22940;DHT22;11636;52.086;5.090;2023-06-10T11:22:02;30.80;64.70
22940;DHT22;11636;52.086;5.090;2023-06-10T11:24:50;30.90;65.20
22940;DHT22;11636;52.086;5.090;2023-06-10T11:27:42;31.00;65.10
22940;DHT22;11636;52.086;5.090;2023-06-10T11:30:27;31.10;64.70
22940;DHT22;11636;52.086;5.090;2023-06-10T11:33:26;31.20;64.30
22940;DHT22;11636;52.086;5.090;2023-06-10T11:36:13;31.30;63.70
22940;DHT22;11636;52.086;5.090;2023-06-10T11:39:06;31.40;63.30
22940;DHT22;11636;52.086;5.090;2023-06-10T11:41:59;31.50;62.40
22940;DHT22;11636;52.086;5.090;2023-06-10T11:44:52;31.60;61.30
22940;DHT22;11636;52.086;5.090;2023-06-10T11:47:57;31.80;61.30
22940;DHT22;11636;52.086;5.090;2023-06-10T11:50:52;32.00;60.90
22940;DHT22;11636;52.086;5.090;2023-06-10T11:53:50;32.00;60.50
22940;DHT22;11636;52.086;5.090;2023-06-10T11:56:36;32.00;60.50
22940;DHT22;11636;52.086;5.090;2023-06-10T11:59:28;32.00;59.60
22940;DHT22;11636;52.086;5.090;2023-06-10T12:02:19;32.10;59.60
22940;DHT22;11636;52.086;5.090;2023-06-10T12:05:12;32.20;59.30
22940;DHT22;11636;52.086;5.090;2023-06-10T12:08:11;32.20;58.70
22940;DHT22;11636;52.086;5.090;2023-06-10T12:11:03;32.20;58.30
22940;DHT22;11636;52.086;5.090;2023-06-10T12:13:55;32.30;58.60
22940;DHT22;11636;52.086;5.090;2023-06-10T12:16:41;32.40;59.00
22940;DHT22;11636;52.086;5.090;2023-06-10T12:19:39;32.40;58.80
22940;DHT22;11636;52.086;5.090;2023-06-10T12:22:25;32.50;57.60
22940;DHT22;11636;52.086;5.090;2023-06-10T12:25:24;32.50;57.20
22940;DHT22;11636;52.086;5.090;2023-06-10T12:28:13;32.60;57.00
22940;DHT22;11636;52.086;5.090;2023-06-10T12:31:08;32.60;56.70
22940;DHT22;11636;52.086;5.090;2023-06-10T12:34:09;32.60;56.40
22940;DHT22;11636;52.086;5.090;2023-06-10T12:37:02;32.60;56.10
22940;DHT22;11636;52.086;5.090;2023-06-10T12:39:51;32.70;56.30
22940;DHT22;11636;52.086;5.090;2023-06-10T12:42:45;32.70;56.20
22940;DHT22;11636;52.086;5.090;2023-06-10T12:45:36;32.70;56.50
22940;DHT22;11636;52.086;5.090;2023-06-10T12:48:28;32.80;56.20
22940;DHT22;11636;52.086;5.090;2023-06-10T12:51:21;32.90;55.90
22940;DHT22;11636;52.086;5.090;2023-06-10T12:54:06;33.00;55.90
22940;DHT22;11636;52.086;5.090;2023-06-10T12:56:58;33.10;55.90
22940;DHT22;11636;52.086;5.090;2023-06-10T12:59:50;33.10;54.60
22940;DHT22;11636;52.086;5.090;2023-06-10T13:02:37;33.30;54.60
22940;DHT22;11636;52.086;5.090;2023-06-10T13:05:30;33.30;54.90
22940;DHT22;11636;52.086;5.090;2023-06-10T13:08:22;33.30;54.60
22940;DHT22;11636;52.086;5.090;2023-06-10T13:11:14;33.40;54.10
22940;DHT22;11636;52.086;5.090;2023-06-10T13:14:00;33.40;53.20
22940;DHT22;11636;52.086;5.090;2023-06-10T13:16:52;33.40;53.80
22940;DHT22;11636;52.086;5.090;2023-06-10T13:19:40;33.40;53.50
22940;DHT22;11636;52.086;5.090;2023-06-10T13:22:33;33.30;53.10
22940;DHT22;11636;52.086;5.090;2023-06-10T13:25:26;33.30;53.40
22940;DHT22;11636;52.086;5.090;2023-06-10T13:28:12;33.40;53.00
22940;DHT22;11636;52.086;5.090;2023-06-10T13:31:04;33.50;53.70
22940;DHT22;11636;52.086;5.090;2023-06-10T13:33:49;33.70;53.80
22940;DHT22;11636;52.086;5.090;2023-06-10T13:36:41;33.70;53.20
22940;DHT22;11636;52.086;5.090;2023-06-10T13:39:33;33.70;52.90
22940;DHT22;11636;52.086;5.090;2023-06-10T13:42:25;33.70;52.80
22940;DHT22;11636;52.086;5.090;2023-06-10T13:45:11;33.80;52.80
22940;DHT22;11636;52.086;5.090;2023-06-10T13:48:04;33.70;52.30
22940;DHT22;11636;52.086;5.090;2023-06-10T13:50:51;33.70;52.10
22940;DHT22;11636;52.086;5.090;2023-06-10T13:53:43;33.90;52.00
22940;DHT22;11636;52.086;5.090;2023-06-10T13:56:28;33.90;52.10
22940;DHT22;11636;52.086;5.090;2023-06-10T13:59:20;33.90;52.10
22940;DHT22;11636;52.086;5.090;2023-06-10T14:02:12;33.80;52.00
22940;DHT22;11636;52.086;5.090;2023-06-10T14:04:58;33.90;52.00
22940;DHT22;11636;52.086;5.090;2023-06-10T14:07:50;33.90;52.20
22940;DHT22;11636;52.086;5.090;2023-06-10T14:10:36;34.10;52.00
22940;DHT22;11636;52.086;5.090;2023-06-10T14:13:28;34.20;52.10
22940;DHT22;11636;52.086;5.090;2023-06-10T14:16:21;34.20;51.90
22940;DHT22;11636;52.086;5.090;2023-06-10T14:19:13;34.20;51.50
22940;DHT22;11636;52.086;5.090;2023-06-10T14:22:05;34.20;50.80
22940;DHT22;11636;52.086;5.090;2023-06-10T14:24:59;34.20;51.20
22940;DHT22;11636;52.086;5.090;2023-06-10T14:27:44;34.30;51.70
22940;DHT22;11636;52.086;5.090;2023-06-10T14:30:38;34.30;51.30
22940;DHT22;11636;52.086;5.090;2023-06-10T14:33:23;34.30;50.30
22940;DHT22;11636;52.086;5.090;2023-06-10T14:36:16;34.30;50.60
22940;DHT22;11636;52.086;5.090;2023-06-10T14:39:09;34.40;50.70
22940;DHT22;11636;52.086;5.090;2023-06-10T14:42:01;34.50;50.90
22940;DHT22;11636;52.086;5.090;2023-06-10T14:44:47;34.50;50.30
22940;DHT22;11636;52.086;5.090;2023-06-10T14:47:45;34.60;50.40
22940;DHT22;11636;52.086;5.090;2023-06-10T14:50:34;34.50;49.40
22940;DHT22;11636;52.086;5.090;2023-06-10T14:53:26;34.50;49.40
22940;DHT22;11636;52.086;5.090;2023-06-10T14:56:18;34.40;49.30
22940;DHT22;11636;52.086;5.090;2023-06-10T14:59:10;34.40;49.90
22940;DHT22;11636;52.086;5.090;2023-06-10T15:02:02;34.30;50.10
22940;DHT22;11636;52.086;5.090;2023-06-10T15:04:48;34.10;49.80
22940;DHT22;11636;52.086;5.090;2023-06-10T15:07:40;34.00;49.90
22940;DHT22;11636;52.086;5.090;2023-06-10T15:10:26;34.10;50.40
22940;DHT22;11636;52.086;5.090;2023-06-10T15:13:25;34.20;49.80
22940;DHT22;11636;52.086;5.090;2023-06-10T15:16:17;34.40;49.80
22940;DHT22;11636;52.086;5.090;2023-06-10T15:19:09;34.30;48.60
22940;DHT22;11636;52.086;5.090;2023-06-10T15:21:55;34.10;48.70
22940;DHT22;11636;52.086;5.090;2023-06-10T15:24:47;33.90;49.20
22940;DHT22;11636;52.086;5.090;2023-06-10T15:27:39;34.00;50.00
22940;DHT22;11636;52.086;5.090;2023-06-10T15:30:32;34.10;50.70
22940;DHT22;11636;52.086;5.090;2023-06-10T15:33:23;34.30;50.40
22940;DHT22;11636;52.086;5.090;2023-06-10T15:36:09;34.40;50.10
22940;DHT22;11636;52.086;5.090;2023-06-10T15:39:03;34.50;50.10
22940;DHT22;11636;52.086;5.090;2023-06-10T15:41:48;34.50;50.00
22940;DHT22;11636;52.086;5.090;2023-06-10T15:44:40;34.50;50.20
22940;DHT22;11636;52.086;5.090;2023-06-10T15:47:32;34.30;49.60
22940;DHT22;11636;52.086;5.090;2023-06-10T15:50:18;34.20;49.30
22940;DHT22;11636;52.086;5.090;2023-06-10T15:53:10;34.10;49.20
22940;DHT22;11636;52.086;5.090;2023-06-10T15:55:56;34.00;50.00
22940;DHT22;11636;52.086;5.090;2023-06-10T15:58:47;34.00;50.30
22940;DHT22;11636;52.086;5.090;2023-06-10T16:01:39;33.90;49.40
22940;DHT22;11636;52.086;5.090;2023-06-10T16:04:25;33.70;49.40
22940;DHT22;11636;52.086;5.090;2023-06-10T16:07:17;33.70;49.90
22940;DHT22;11636;52.086;5.090;2023-06-10T16:10:03;33.60;49.30
22940;DHT22;11636;52.086;5.090;2023-06-10T16:12:55;33.60;49.60
22940;DHT22;11636;52.086;5.090;2023-06-10T16:15:47;33.70;50.20
22940;DHT22;11636;52.086;5.090;2023-06-10T16:18:33;33.50;48.90
22940;DHT22;11636;52.086;5.090;2023-06-10T16:21:25;33.30;49.40
22940;DHT22;11636;52.086;5.090;2023-06-10T16:24:11;33.20;49.80
22940;DHT22;11636;52.086;5.090;2023-06-10T16:27:04;33.20;50.50
22940;DHT22;11636;52.086;5.090;2023-06-10T16:29:55;33.40;50.90
22940;DHT22;11636;52.086;5.090;2023-06-10T16:32:46;33.50;50.30
22940;DHT22;11636;52.086;5.090;2023-06-10T16:35:39;33.40;49.40
22940;DHT22;11636;52.086;5.090;2023-06-10T16:38:30;33.40;49.20
22940;DHT22;11636;52.086;5.090;2023-06-10T16:41:16;33.60;49.50
22940;DHT22;11636;52.086;5.090;2023-06-10T16:44:08;33.80;49.10
22940;DHT22;11636;52.086;5.090;2023-06-10T16:46:53;34.10;49.20
22940;DHT22;11636;52.086;5.090;2023-06-10T16:49:45;34.10;48.50
22940;DHT22;11636;52.086;5.090;2023-06-10T16:52:37;33.60;48.40
22940;DHT22;11636;52.086;5.090;2023-06-10T16:55:29;33.00;48.60
22940;DHT22;11636;52.086;5.090;2023-06-10T16:58:21;32.40;49.50
22940;DHT22;11636;52.086;5.090;2023-06-10T17:01:08;32.00;50.10
22940;DHT22;11636;52.086;5.090;2023-06-10T17:04:00;31.60;51.50
22940;DHT22;11636;52.086;5.090;2023-06-10T17:06:46;31.40;53.60
22940;DHT22;11636;52.086;5.090;2023-06-10T17:09:37;31.10;60.70
22940;DHT22;11636;52.086;5.090;2023-06-10T17:12:29;30.80;64.50
22940;DHT22;11636;52.086;5.090;2023-06-10T17:15:15;30.50;61.30
22940;DHT22;11636;52.086;5.090;2023-06-10T17:18:07;30.20;59.20
22940;DHT22;11636;52.086;5.090;2023-06-10T17:20:59;30.00;57.50
22940;DHT22;11636;52.086;5.090;2023-06-10T17:23:45;29.90;57.10
22940;DHT22;11636;52.086;5.090;2023-06-10T17:26:37;29.80;56.30
22940;DHT22;11636;52.086;5.090;2023-06-10T17:29:29;29.70;56.00
22940;DHT22;11636;52.086;5.090;2023-06-10T17:32:16;29.60;56.30
22940;DHT22;11636;52.086;5.090;2023-06-10T17:35:08;29.50;56.00
22940;DHT22;11636;52.086;5.090;2023-06-10T17:37:55;29.40;55.20
22940;DHT22;11636;52.086;5.090;2023-06-10T17:40:46;29.30;54.70
22940;DHT22;11636;52.086;5.090;2023-06-10T17:43:32;29.30;55.50
22940;DHT22;11636;52.086;5.090;2023-06-10T17:46:23;29.30;55.80
22940;DHT22;11636;52.086;5.090;2023-06-10T17:49:09;29.20;55.40
22940;DHT22;11636;52.086;5.090;2023-06-10T17:52:02;29.10;55.00
22940;DHT22;11636;52.086;5.090;2023-06-10T17:54:53;29.00;55.00
22940;DHT22;11636;52.086;5.090;2023-06-10T17:57:39;28.90;54.70
22940;DHT22;11636;52.086;5.090;2023-06-10T18:00:30;28.80;54.10
22940;DHT22;11636;52.086;5.090;2023-06-10T18:03:22;28.70;54.30
22940;DHT22;11636;52.086;5.090;2023-06-10T18:06:12;28.60;54.30